sensor_id;sensor_type;location;lat;lon;timestamp;pressure;altitude;pressure_sealevel;temperature;humidity
13486;BME280;6815;59.336;17.998;2022-10-17T00:01:03;76610.41;;;-145.37;71.33
13486;BME280;6815;59.336;17.998;2022-10-17T00:03:29;76628.50;;;-145.37;71.64
13486;BME280;6815;59.336;17.998;2022-10-17T00:05:55;76628.50;;;-145.37;71.83
13486;BME280;6815;59.336;17.998;2022-10-17T00:08:20;76630.50;;;-145.37;71.78
13486;BME280;6815;59.336;17.998;2022-10-17T00:10:56;76628.50;;;-145.37;71.57
13486;BME280;6815;59.336;17.998;2022-10-17T00:13:22;76644.56;;;-145.37;71.54
13486;BME280;6815;59.336;17.998;2022-10-17T00:15:47;76640.56;;;-145.37;71.44
13486;BME280;6815;59.336;17.998;2022-10-17T00:18:13;76634.53;;;-145.37;71.29
13486;BME280;6815;59.336;17.998;2022-10-17T00:20:38;76632.50;;;-145.37;71.23
13486;BME280;6815;59.336;17.998;2022-10-17T00:23:04;76630.50;;;-145.37;71.68
13486;BME280;6815;59.336;17.998;2022-10-17T00:25:29;76642.56;;;-145.37;71.27
13486;BME280;6815;59.336;17.998;2022-10-17T00:27:54;76630.50;;;-145.37;71.53
13486;BME280;6815;59.336;17.998;2022-10-17T00:30:20;76634.53;;;-145.37;71.48
13486;BME280;6815;59.336;17.998;2022-10-17T00:32:45;76640.56;;;-145.37;71.29
13486;BME280;6815;59.336;17.998;2022-10-17T00:35:11;76630.50;;;-145.37;71.34
13486;BME280;6815;59.336;17.998;2022-10-17T00:37:36;76624.47;;;-145.37;70.94
13486;BME280;6815;59.336;17.998;2022-10-17T00:40:04;76640.56;;;-145.37;71.58
13486;BME280;6815;59.336;17.998;2022-10-17T00:42:30;76638.53;;;-145.37;71.36
13486;BME280;6815;59.336;17.998;2022-10-17T00:45:00;76638.53;;;-145.37;71.07
13486;BME280;6815;59.336;17.998;2022-10-17T00:47:27;76624.47;;;-145.37;70.90
13486;BME280;6815;59.336;17.998;2022-10-17T00:49:53;76640.56;;;-145.37;71.08
13486;BME280;6815;59.336;17.998;2022-10-17T00:52:22;76638.53;;;-145.37;71.30
13486;BME280;6815;59.336;17.998;2022-10-17T00:54:53;76634.53;;;-145.37;71.45
13486;BME280;6815;59.336;17.998;2022-10-17T00:57:20;76628.50;;;-145.37;71.46
13486;BME280;6815;59.336;17.998;2022-10-17T00:59:49;76624.47;;;-145.37;71.01
13486;BME280;6815;59.336;17.998;2022-10-17T01:02:17;76628.50;;;-145.37;71.32
13486;BME280;6815;59.336;17.998;2022-10-17T01:04:46;76624.47;;;-145.37;71.51
13486;BME280;6815;59.336;17.998;2022-10-17T01:07:12;76634.53;;;-145.37;71.70
13486;BME280;6815;59.336;17.998;2022-10-17T01:09:39;76634.53;;;-145.37;71.52
13486;BME280;6815;59.336;17.998;2022-10-17T01:17:15;76632.50;;;-145.37;71.07
13486;BME280;6815;59.336;17.998;2022-10-17T01:20:38;76644.56;;;-145.37;71.28
13486;BME280;6815;59.336;17.998;2022-10-17T01:31:48;76630.50;;;-145.37;70.79
13486;BME280;6815;59.336;17.998;2022-10-17T01:34:22;76646.59;;;-145.37;70.92
13486;BME280;6815;59.336;17.998;2022-10-17T01:36:56;76646.59;;;-145.37;71.24
13486;BME280;6815;59.336;17.998;2022-10-17T01:42:27;76654.63;;;-145.37;70.82
13486;BME280;6815;59.336;17.998;2022-10-17T01:44:59;76644.56;;;-145.37;70.81
13486;BME280;6815;59.336;17.998;2022-10-17T01:47:28;76654.63;;;-145.37;70.82
13486;BME280;6815;59.336;17.998;2022-10-17T01:50:02;76658.66;;;-145.37;70.88
13486;BME280;6815;59.336;17.998;2022-10-17T01:52:43;76658.66;;;-145.37;70.77
13486;BME280;6815;59.336;17.998;2022-10-17T01:55:14;76656.63;;;-145.37;70.31
13486;BME280;6815;59.336;17.998;2022-10-17T01:57:49;76652.63;;;-145.37;70.27
13486;BME280;6815;59.336;17.998;2022-10-17T02:00:20;76662.66;;;-145.37;70.46
13486;BME280;6815;59.336;17.998;2022-10-17T02:02:48;76652.63;;;-145.37;70.19
13486;BME280;6815;59.336;17.998;2022-10-17T02:05:18;76676.75;;;-145.37;70.16
13486;BME280;6815;59.336;17.998;2022-10-17T02:07:45;76672.72;;;-145.37;70.34
13486;BME280;6815;59.336;17.998;2022-10-17T02:10:21;76670.72;;;-145.37;70.14
13486;BME280;6815;59.336;17.998;2022-10-17T02:13:19;76678.75;;;-145.37;69.99
13486;BME280;6815;59.336;17.998;2022-10-17T02:21:45;76682.78;;;-145.37;69.36
13486;BME280;6815;59.336;17.998;2022-10-17T02:24:28;76692.81;;;-145.37;69.64
13486;BME280;6815;59.336;17.998;2022-10-17T02:27:15;76684.78;;;-145.37;69.60
13486;BME280;6815;59.336;17.998;2022-10-17T02:29:46;76698.84;;;-145.37;69.64
13486;BME280;6815;59.336;17.998;2022-10-17T02:32:22;76694.84;;;-145.37;69.21
13486;BME280;6815;59.336;17.998;2022-10-17T02:34:52;76692.81;;;-145.37;69.42
13486;BME280;6815;59.336;17.998;2022-10-17T02:37:23;76700.88;;;-145.37;69.73
13486;BME280;6815;59.336;17.998;2022-10-17T02:39:49;76714.94;;;-145.37;69.76
13486;BME280;6815;59.336;17.998;2022-10-17T02:42:16;76714.94;;;-145.37;69.89
13486;BME280;6815;59.336;17.998;2022-10-17T02:44:43;76727.00;;;-145.37;69.58
13486;BME280;6815;59.336;17.998;2022-10-17T02:47:18;76729.03;;;-145.37;69.54
13486;BME280;6815;59.336;17.998;2022-10-17T02:49:55;76733.03;;;-145.37;69.60
13486;BME280;6815;59.336;17.998;2022-10-17T02:55:06;76743.09;;;-145.37;69.75
13486;BME280;6815;59.336;17.998;2022-10-17T02:57:38;76751.13;;;-145.37;70.67
13486;BME280;6815;59.336;17.998;2022-10-17T03:00:08;76763.19;;;-145.37;70.39
13486;BME280;6815;59.336;17.998;2022-10-17T03:02:44;76767.22;;;-145.37;70.23
13486;BME280;6815;59.336;17.998;2022-10-17T03:05:12;76767.22;;;-145.37;70.11
13486;BME280;6815;59.336;17.998;2022-10-17T03:07:38;76775.25;;;-145.37;70.17
13486;BME280;6815;59.336;17.998;2022-10-17T03:10:03;76785.31;;;-145.37;70.61
13486;BME280;6815;59.336;17.998;2022-10-17T03:12:29;76779.28;;;-145.37;70.74
13486;BME280;6815;59.336;17.998;2022-10-17T03:14:55;76791.34;;;-145.37;70.85
13486;BME280;6815;59.336;17.998;2022-10-17T03:17:20;76807.44;;;-145.37;70.86
13486;BME280;6815;59.336;17.998;2022-10-17T03:19:45;76801.41;;;-145.37;70.63
13486;BME280;6815;59.336;17.998;2022-10-17T03:22:11;76807.44;;;-145.37;70.62
13486;BME280;6815;59.336;17.998;2022-10-17T03:24:36;76805.44;;;-145.37;70.82
13486;BME280;6815;59.336;17.998;2022-10-17T03:27:02;76803.41;;;-145.37;70.54
13486;BME280;6815;59.336;17.998;2022-10-17T03:29:27;76821.50;;;-145.37;70.91
13486;BME280;6815;59.336;17.998;2022-10-17T03:31:53;76827.53;;;-145.37;71.24
13486;BME280;6815;59.336;17.998;2022-10-17T03:34:18;76829.56;;;-145.37;70.89
13486;BME280;6815;59.336;17.998;2022-10-17T03:36:44;76833.56;;;-145.37;70.92
13486;BME280;6815;59.336;17.998;2022-10-17T03:39:09;76845.63;;;-145.37;70.88
13486;BME280;6815;59.336;17.998;2022-10-17T03:41:35;76847.66;;;-145.37;70.88
13486;BME280;6815;59.336;17.998;2022-10-17T03:44:00;76861.72;;;-145.37;71.29
13486;BME280;6815;59.336;17.998;2022-10-17T03:46:26;76859.72;;;-145.37;70.82
13486;BME280;6815;59.336;17.998;2022-10-17T03:48:52;76865.75;;;-145.37;70.75
13486;BME280;6815;59.336;17.998;2022-10-17T03:51:17;76863.72;;;-145.37;70.78
13486;BME280;6815;59.336;17.998;2022-10-17T03:53:43;76871.78;;;-145.37;70.71
13486;BME280;6815;59.336;17.998;2022-10-17T03:56:20;76883.84;;;-145.37;70.75
13486;BME280;6815;59.336;17.998;2022-10-17T03:58:46;76885.84;;;-145.37;71.01
13486;BME280;6815;59.336;17.998;2022-10-17T04:01:13;76905.97;;;-145.37;70.98
13486;BME280;6815;59.336;17.998;2022-10-17T04:03:40;76899.94;;;-145.37;71.13
13486;BME280;6815;59.336;17.998;2022-10-17T04:06:06;76909.97;;;-145.37;71.12
13486;BME280;6815;59.336;17.998;2022-10-17T04:08:33;76909.97;;;-145.37;71.12
13486;BME280;6815;59.336;17.998;2022-10-17T04:10:59;76914.00;;;-145.37;71.58
13486;BME280;6815;59.336;17.998;2022-10-17T04:13:25;76922.03;;;-145.37;71.44
13486;BME280;6815;59.336;17.998;2022-10-17T04:16:09;76922.03;;;-145.37;71.42
13486;BME280;6815;59.336;17.998;2022-10-17T04:18:36;76932.09;;;-145.37;71.32
13486;BME280;6815;59.336;17.998;2022-10-17T04:21:05;76930.09;;;-145.37;71.76
13486;BME280;6815;59.336;17.998;2022-10-17T04:23:32;76932.09;;;-145.37;71.58
13486;BME280;6815;59.336;17.998;2022-10-17T04:25:58;76944.16;;;-145.37;71.57
13486;BME280;6815;59.336;17.998;2022-10-17T04:28:25;76948.19;;;-145.37;71.89
13486;BME280;6815;59.336;17.998;2022-10-17T04:30:59;76960.25;;;-145.37;71.67
13486;BME280;6815;59.336;17.998;2022-10-17T04:33:25;76950.19;;;-145.37;71.63
13486;BME280;6815;59.336;17.998;2022-10-17T04:36:15;76952.22;;;-145.37;71.51
13486;BME280;6815;59.336;17.998;2022-10-17T04:38:40;76960.25;;;-145.37;71.47
13486;BME280;6815;59.336;17.998;2022-10-17T04:41:09;76960.25;;;-145.37;71.07
13486;BME280;6815;59.336;17.998;2022-10-17T04:43:36;76968.28;;;-145.37;71.19
13486;BME280;6815;59.336;17.998;2022-10-17T04:46:07;76974.31;;;-145.37;71.38
13486;BME280;6815;59.336;17.998;2022-10-17T04:48:33;76980.34;;;-145.37;71.22
13486;BME280;6815;59.336;17.998;2022-10-17T04:51:04;76990.41;;;-145.37;71.03
13486;BME280;6815;59.336;17.998;2022-10-17T04:53:31;76998.47;;;-145.37;71.15
13486;BME280;6815;59.336;17.998;2022-10-17T04:55:57;77000.47;;;-145.37;71.04
13486;BME280;6815;59.336;17.998;2022-10-17T04:58:23;77002.47;;;-145.37;70.86
13486;BME280;6815;59.336;17.998;2022-10-17T05:00:48;77022.59;;;-145.37;70.91
13486;BME280;6815;59.336;17.998;2022-10-17T05:03:14;77016.56;;;-145.37;70.79
13486;BME280;6815;59.336;17.998;2022-10-17T05:05:40;77026.59;;;-145.37;70.69
13486;BME280;6815;59.336;17.998;2022-10-17T05:08:10;77038.66;;;-145.37;71.07
13486;BME280;6815;59.336;17.998;2022-10-17T05:10:39;77036.66;;;-145.37;70.74
13486;BME280;6815;59.336;17.998;2022-10-17T05:13:05;77036.66;;;-145.37;70.40
13486;BME280;6815;59.336;17.998;2022-10-17T05:15:31;77036.66;;;-145.37;70.56
13486;BME280;6815;59.336;17.998;2022-10-17T05:17:57;77040.69;;;-145.37;71.05
13486;BME280;6815;59.336;17.998;2022-10-17T05:20:23;77046.72;;;-145.37;71.10
13486;BME280;6815;59.336;17.998;2022-10-17T05:22:48;77050.75;;;-145.37;71.16
13486;BME280;6815;59.336;17.998;2022-10-17T05:25:14;77054.75;;;-145.37;70.67
13486;BME280;6815;59.336;17.998;2022-10-17T05:27:39;77050.75;;;-145.37;70.77
13486;BME280;6815;59.336;17.998;2022-10-17T05:30:05;77060.78;;;-145.37;70.76
13486;BME280;6815;59.336;17.998;2022-10-17T05:32:31;77068.84;;;-145.37;70.69
13486;BME280;6815;59.336;17.998;2022-10-17T05:34:57;77066.81;;;-145.37;70.26
13486;BME280;6815;59.336;17.998;2022-10-17T05:37:22;77072.84;;;-145.37;70.23
13486;BME280;6815;59.336;17.998;2022-10-17T05:39:48;77080.91;;;-145.37;70.56
13486;BME280;6815;59.336;17.998;2022-10-17T05:42:13;77078.88;;;-145.37;71.27
13486;BME280;6815;59.336;17.998;2022-10-17T05:44:39;77088.94;;;-145.37;71.30
13486;BME280;6815;59.336;17.998;2022-10-17T05:47:06;77082.91;;;-145.37;70.72
13486;BME280;6815;59.336;17.998;2022-10-17T05:49:31;77088.94;;;-145.37;70.57
13486;BME280;6815;59.336;17.998;2022-10-17T05:51:57;77092.97;;;-145.37;70.88
13486;BME280;6815;59.336;17.998;2022-10-17T05:54:22;77109.06;;;-145.37;70.93
13486;BME280;6815;59.336;17.998;2022-10-17T05:56:52;77119.09;;;-145.37;70.72
13486;BME280;6815;59.336;17.998;2022-10-17T05:59:18;77119.09;;;-145.37;71.46
13486;BME280;6815;59.336;17.998;2022-10-17T06:01:44;77115.09;;;-145.37;71.15
13486;BME280;6815;59.336;17.998;2022-10-17T06:04:09;77113.06;;;-145.37;71.42
13486;BME280;6815;59.336;17.998;2022-10-17T06:06:35;77127.16;;;-145.37;71.60
13486;BME280;6815;59.336;17.998;2022-10-17T06:09:01;77135.19;;;-145.37;71.83
13486;BME280;6815;59.336;17.998;2022-10-17T06:11:27;77133.19;;;-145.37;71.78
13486;BME280;6815;59.336;17.998;2022-10-17T06:13:52;77133.19;;;-145.37;71.95
13486;BME280;6815;59.336;17.998;2022-10-17T06:16:18;77131.16;;;-145.37;71.87
13486;BME280;6815;59.336;17.998;2022-10-17T06:18:43;77127.16;;;-145.37;72.21
13486;BME280;6815;59.336;17.998;2022-10-17T06:21:10;77133.19;;;-145.37;72.91
13486;BME280;6815;59.336;17.998;2022-10-17T06:23:36;77145.25;;;-145.37;72.65
13486;BME280;6815;59.336;17.998;2022-10-17T06:26:03;77149.28;;;-145.37;72.50
13486;BME280;6815;59.336;17.998;2022-10-17T06:28:29;77153.28;;;-145.37;72.62
13486;BME280;6815;59.336;17.998;2022-10-17T06:30:55;77157.31;;;-145.37;72.51
13486;BME280;6815;59.336;17.998;2022-10-17T06:33:21;77161.34;;;-145.37;72.51
13486;BME280;6815;59.336;17.998;2022-10-17T06:35:52;77161.34;;;-145.37;72.75
13486;BME280;6815;59.336;17.998;2022-10-17T06:38:17;77173.41;;;-145.37;72.74
13486;BME280;6815;59.336;17.998;2022-10-17T06:40:43;77171.38;;;-145.37;72.86
13486;BME280;6815;59.336;17.998;2022-10-17T06:43:08;77169.38;;;-145.37;73.06
13486;BME280;6815;59.336;17.998;2022-10-17T06:45:33;77171.38;;;-145.37;72.80
13486;BME280;6815;59.336;17.998;2022-10-17T06:48:01;77179.44;;;-145.37;72.68
13486;BME280;6815;59.336;17.998;2022-10-17T06:50:26;77181.44;;;-145.37;72.83
13486;BME280;6815;59.336;17.998;2022-10-17T06:52:51;77175.41;;;-145.37;72.48
13486;BME280;6815;59.336;17.998;2022-10-17T06:55:17;77189.50;;;-145.37;72.73
13486;BME280;6815;59.336;17.998;2022-10-17T06:57:42;77193.50;;;-145.37;72.76
13486;BME280;6815;59.336;17.998;2022-10-17T07:00:08;77189.50;;;-145.37;72.58
13486;BME280;6815;59.336;17.998;2022-10-17T07:02:34;77189.50;;;-145.37;72.52
13486;BME280;6815;59.336;17.998;2022-10-17T07:04:59;77195.53;;;-145.37;72.61
13486;BME280;6815;59.336;17.998;2022-10-17T07:07:25;77203.56;;;-145.37;72.69
13486;BME280;6815;59.336;17.998;2022-10-17T07:09:50;77207.59;;;-145.37;72.87
13486;BME280;6815;59.336;17.998;2022-10-17T07:12:15;77203.56;;;-145.37;72.84
13486;BME280;6815;59.336;17.998;2022-10-17T07:14:41;77211.59;;;-145.37;72.56
13486;BME280;6815;59.336;17.998;2022-10-17T07:17:06;77217.63;;;-145.37;72.65
13486;BME280;6815;59.336;17.998;2022-10-17T07:19:32;77213.63;;;-145.37;72.51
13486;BME280;6815;59.336;17.998;2022-10-17T07:21:57;77217.63;;;-145.37;72.48
13486;BME280;6815;59.336;17.998;2022-10-17T07:24:22;77215.63;;;-145.37;72.07
13486;BME280;6815;59.336;17.998;2022-10-17T07:26:48;77211.59;;;-145.37;72.12
13486;BME280;6815;59.336;17.998;2022-10-17T07:29:13;77213.63;;;-145.37;71.86
13486;BME280;6815;59.336;17.998;2022-10-17T07:31:39;77219.66;;;-145.37;72.11
13486;BME280;6815;59.336;17.998;2022-10-17T07:34:04;77221.66;;;-145.37;71.97
13486;BME280;6815;59.336;17.998;2022-10-17T07:36:30;77217.63;;;-145.37;71.65
13486;BME280;6815;59.336;17.998;2022-10-17T07:38:55;77217.63;;;-145.37;71.30
13486;BME280;6815;59.336;17.998;2022-10-17T07:41:20;77217.63;;;-145.37;71.40
13486;BME280;6815;59.336;17.998;2022-10-17T07:43:46;77217.63;;;-145.37;71.15
13486;BME280;6815;59.336;17.998;2022-10-17T07:46:11;77223.69;;;-145.37;70.94
13486;BME280;6815;59.336;17.998;2022-10-17T07:48:38;77213.63;;;-145.37;71.02
13486;BME280;6815;59.336;17.998;2022-10-17T07:51:06;77223.69;;;-145.37;71.52
13486;BME280;6815;59.336;17.998;2022-10-17T07:53:34;77219.66;;;-145.37;71.22
13486;BME280;6815;59.336;17.998;2022-10-17T07:56:06;77221.66;;;-145.37;71.10
13486;BME280;6815;59.336;17.998;2022-10-17T07:58:32;77231.72;;;-145.37;70.87
13486;BME280;6815;59.336;17.998;2022-10-17T08:01:06;77235.75;;;-145.37;71.23
13486;BME280;6815;59.336;17.998;2022-10-17T08:03:32;77233.72;;;-145.37;70.59
13486;BME280;6815;59.336;17.998;2022-10-17T08:06:02;77235.75;;;-145.37;70.93
13486;BME280;6815;59.336;17.998;2022-10-17T08:08:28;77229.72;;;-145.37;70.23
13486;BME280;6815;59.336;17.998;2022-10-17T08:10:55;77235.75;;;-145.37;70.55
13486;BME280;6815;59.336;17.998;2022-10-17T08:13:25;77241.78;;;-145.37;70.16
13486;BME280;6815;59.336;17.998;2022-10-17T08:15:50;77231.72;;;-145.37;69.86
13486;BME280;6815;59.336;17.998;2022-10-17T08:18:16;77231.72;;;-145.37;69.74
13486;BME280;6815;59.336;17.998;2022-10-17T08:20:42;77225.69;;;-145.37;69.46
13486;BME280;6815;59.336;17.998;2022-10-17T08:23:08;77221.66;;;-145.37;70.04
13486;BME280;6815;59.336;17.998;2022-10-17T08:25:37;77223.69;;;-145.37;70.11
13486;BME280;6815;59.336;17.998;2022-10-17T08:28:04;77229.72;;;-145.37;69.94
13486;BME280;6815;59.336;17.998;2022-10-17T08:30:30;77231.72;;;-145.37;69.28
13486;BME280;6815;59.336;17.998;2022-10-17T08:32:55;77229.72;;;-145.37;69.13
13486;BME280;6815;59.336;17.998;2022-10-17T08:35:21;77235.75;;;-145.37;69.01
13486;BME280;6815;59.336;17.998;2022-10-17T08:37:46;77239.75;;;-145.37;68.80
13486;BME280;6815;59.336;17.998;2022-10-17T08:40:23;77235.75;;;-145.37;68.90
13486;BME280;6815;59.336;17.998;2022-10-17T08:43:16;77221.66;;;-145.37;68.39
13486;BME280;6815;59.336;17.998;2022-10-17T08:45:46;77211.59;;;-145.37;68.21
13486;BME280;6815;59.336;17.998;2022-10-17T08:48:20;77227.69;;;-145.37;68.35
13486;BME280;6815;59.336;17.998;2022-10-17T08:53:28;77231.72;;;-145.37;67.65
13486;BME280;6815;59.336;17.998;2022-10-17T08:55:56;77229.72;;;-145.37;67.55
13486;BME280;6815;59.336;17.998;2022-10-17T08:58:30;77227.69;;;-145.37;68.07
13486;BME280;6815;59.336;17.998;2022-10-17T09:06:34;77223.69;;;-145.37;67.79
13486;BME280;6815;59.336;17.998;2022-10-17T09:09:15;77225.69;;;-145.37;67.67
13486;BME280;6815;59.336;17.998;2022-10-17T09:12:14;77217.63;;;-145.37;67.36
13486;BME280;6815;59.336;17.998;2022-10-17T09:17:34;77215.63;;;-145.37;66.36
13486;BME280;6815;59.336;17.998;2022-10-17T09:20:11;77211.59;;;-145.37;65.40
13486;BME280;6815;59.336;17.998;2022-10-17T09:25:20;77207.59;;;-145.37;65.40
13486;BME280;6815;59.336;17.998;2022-10-17T09:28:09;77213.63;;;-145.37;65.73
13486;BME280;6815;59.336;17.998;2022-10-17T09:33:11;77205.56;;;-145.37;64.75
13486;BME280;6815;59.336;17.998;2022-10-17T09:35:37;77207.59;;;-145.37;64.99
13486;BME280;6815;59.336;17.998;2022-10-17T09:38:04;77215.63;;;-145.37;64.72
13486;BME280;6815;59.336;17.998;2022-10-17T09:40:33;77203.56;;;-145.37;64.83
13486;BME280;6815;59.336;17.998;2022-10-17T09:43:00;77203.56;;;-145.37;64.36
13486;BME280;6815;59.336;17.998;2022-10-17T09:45:28;77211.59;;;-145.37;63.81
13486;BME280;6815;59.336;17.998;2022-10-17T09:48:09;77193.50;;;-145.37;63.33
13486;BME280;6815;59.336;17.998;2022-10-17T09:50:35;77199.53;;;-145.37;62.95
13486;BME280;6815;59.336;17.998;2022-10-17T09:53:08;77197.53;;;-145.37;62.40
13486;BME280;6815;59.336;17.998;2022-10-17T09:55:45;77193.50;;;-145.37;62.84
13486;BME280;6815;59.336;17.998;2022-10-17T09:58:14;77187.47;;;-145.37;62.63
13486;BME280;6815;59.336;17.998;2022-10-17T10:00:43;77191.50;;;-145.37;62.84
13486;BME280;6815;59.336;17.998;2022-10-17T10:03:13;77197.53;;;-145.37;63.22
13486;BME280;6815;59.336;17.998;2022-10-17T10:05:40;77199.53;;;-145.37;63.51
13486;BME280;6815;59.336;17.998;2022-10-17T10:08:18;77193.50;;;-145.37;63.03
13486;BME280;6815;59.336;17.998;2022-10-17T10:10:44;77197.53;;;-145.37;62.13
13486;BME280;6815;59.336;17.998;2022-10-17T10:15:40;77189.50;;;-145.37;62.16
13486;BME280;6815;59.336;17.998;2022-10-17T10:23:42;77179.44;;;-145.37;60.68
13486;BME280;6815;59.336;17.998;2022-10-17T10:26:23;77173.41;;;-145.37;60.51
13486;BME280;6815;59.336;17.998;2022-10-17T10:29:32;77165.34;;;-145.37;59.68
13486;BME280;6815;59.336;17.998;2022-10-17T10:32:27;77161.34;;;-145.37;59.31
13486;BME280;6815;59.336;17.998;2022-10-17T10:37:40;77169.38;;;-145.37;58.95
13486;BME280;6815;59.336;17.998;2022-10-17T10:40:24;77175.41;;;-145.37;59.20
13486;BME280;6815;59.336;17.998;2022-10-17T10:42:54;77175.41;;;-145.37;59.58
13486;BME280;6815;59.336;17.998;2022-10-17T10:45:25;77165.34;;;-145.37;59.22
13486;BME280;6815;59.336;17.998;2022-10-17T10:48:04;77167.38;;;-145.37;58.38
13486;BME280;6815;59.336;17.998;2022-10-17T10:55:58;77147.25;;;-145.37;59.15
13486;BME280;6815;59.336;17.998;2022-10-17T10:58:48;77157.31;;;-145.37;58.45
13486;BME280;6815;59.336;17.998;2022-10-17T11:01:38;77147.25;;;-145.37;57.97
13486;BME280;6815;59.336;17.998;2022-10-17T11:04:15;77149.28;;;-145.37;58.11
13486;BME280;6815;59.336;17.998;2022-10-17T11:06:44;77153.28;;;-145.37;58.28
13486;BME280;6815;59.336;17.998;2022-10-17T11:09:31;77157.31;;;-145.37;58.74
13486;BME280;6815;59.336;17.998;2022-10-17T11:12:26;77157.31;;;-145.37;57.99
13486;BME280;6815;59.336;17.998;2022-10-17T11:15:12;77165.34;;;-145.37;58.50
13486;BME280;6815;59.336;17.998;2022-10-17T11:17:46;77153.28;;;-145.37;58.73
13486;BME280;6815;59.336;17.998;2022-10-17T11:20:50;77147.25;;;-145.37;58.42
13486;BME280;6815;59.336;17.998;2022-10-17T11:23:38;77155.31;;;-145.37;58.37
13486;BME280;6815;59.336;17.998;2022-10-17T11:26:22;77157.31;;;-145.37;57.92
13486;BME280;6815;59.336;17.998;2022-10-17T11:28:55;77149.28;;;-145.37;57.93
13486;BME280;6815;59.336;17.998;2022-10-17T11:31:23;77149.28;;;-145.37;58.28
13486;BME280;6815;59.336;17.998;2022-10-17T11:34:20;77143.25;;;-145.37;58.37
13486;BME280;6815;59.336;17.998;2022-10-17T11:36:45;77137.19;;;-145.37;58.48
13486;BME280;6815;59.336;17.998;2022-10-17T11:39:16;77137.19;;;-145.37;58.72
13486;BME280;6815;59.336;17.998;2022-10-17T11:41:58;77123.13;;;-145.37;58.44
13486;BME280;6815;59.336;17.998;2022-10-17T11:44:33;77131.16;;;-145.37;58.09
13486;BME280;6815;59.336;17.998;2022-10-17T11:47:11;77135.19;;;-145.37;58.37
13486;BME280;6815;59.336;17.998;2022-10-17T11:49:46;77129.16;;;-145.37;57.74
13486;BME280;6815;59.336;17.998;2022-10-17T11:52:36;77129.16;;;-145.37;57.34
13486;BME280;6815;59.336;17.998;2022-10-17T11:55:26;77119.09;;;-145.37;57.45
13486;BME280;6815;59.336;17.998;2022-10-17T11:58:06;77121.13;;;-145.37;56.85
13486;BME280;6815;59.336;17.998;2022-10-17T12:03:29;77131.16;;;-145.37;56.48
13486;BME280;6815;59.336;17.998;2022-10-17T12:06:14;77127.16;;;-145.37;57.04
13486;BME280;6815;59.336;17.998;2022-10-17T12:16:58;77113.06;;;-145.37;56.67
13486;BME280;6815;59.336;17.998;2022-10-17T12:19:26;77105.03;;;-145.37;56.74
13486;BME280;6815;59.336;17.998;2022-10-17T12:22:24;77109.06;;;-145.37;56.75
13486;BME280;6815;59.336;17.998;2022-10-17T12:27:37;77097.00;;;-145.37;57.49
13486;BME280;6815;59.336;17.998;2022-10-17T12:30:14;77101.00;;;-145.37;57.32
13486;BME280;6815;59.336;17.998;2022-10-17T12:35:21;77088.94;;;-145.37;57.35
13486;BME280;6815;59.336;17.998;2022-10-17T12:45:55;77070.84;;;-145.37;58.23
13486;BME280;6815;59.336;17.998;2022-10-17T12:56:19;77062.81;;;-145.37;59.01
13486;BME280;6815;59.336;17.998;2022-10-17T12:58:47;77068.84;;;-145.37;59.07
13486;BME280;6815;59.336;17.998;2022-10-17T13:01:22;77068.84;;;-145.37;59.34
13486;BME280;6815;59.336;17.998;2022-10-17T13:03:50;77072.84;;;-145.37;59.67
13486;BME280;6815;59.336;17.998;2022-10-17T13:06:28;77076.88;;;-145.37;60.15
13486;BME280;6815;59.336;17.998;2022-10-17T13:09:01;77076.88;;;-145.37;60.56
13486;BME280;6815;59.336;17.998;2022-10-17T13:11:31;77080.91;;;-145.37;61.08
13486;BME280;6815;59.336;17.998;2022-10-17T13:13:59;77086.94;;;-145.37;61.73
13486;BME280;6815;59.336;17.998;2022-10-17T13:16:33;77092.97;;;-145.37;62.27
13486;BME280;6815;59.336;17.998;2022-10-17T13:19:02;77094.97;;;-145.37;62.31
13486;BME280;6815;59.336;17.998;2022-10-17T13:21:28;77107.03;;;-145.37;62.55
13486;BME280;6815;59.336;17.998;2022-10-17T13:23:53;77101.00;;;-145.37;62.32
13486;BME280;6815;59.336;17.998;2022-10-17T13:26:25;77113.06;;;-145.37;62.52
13486;BME280;6815;59.336;17.998;2022-10-17T13:29:12;77111.06;;;-145.37;62.43
13486;BME280;6815;59.336;17.998;2022-10-17T13:31:40;77111.06;;;-145.37;62.73
13486;BME280;6815;59.336;17.998;2022-10-17T13:34:15;77125.13;;;-145.37;63.20
13486;BME280;6815;59.336;17.998;2022-10-17T13:36:42;77109.06;;;-145.37;63.06
13486;BME280;6815;59.336;17.998;2022-10-17T13:39:16;77121.13;;;-145.37;63.22
13486;BME280;6815;59.336;17.998;2022-10-17T13:41:42;77113.06;;;-145.37;63.35
13486;BME280;6815;59.336;17.998;2022-10-17T13:44:14;77115.09;;;-145.37;63.47
13486;BME280;6815;59.336;17.998;2022-10-17T13:46:42;77123.13;;;-145.37;63.80
13486;BME280;6815;59.336;17.998;2022-10-17T13:51:45;77125.13;;;-145.37;63.57
13486;BME280;6815;59.336;17.998;2022-10-17T13:56:57;77119.09;;;-145.37;63.91
13486;BME280;6815;59.336;17.998;2022-10-17T13:59:26;77119.09;;;-145.37;63.89
13486;BME280;6815;59.336;17.998;2022-10-17T14:01:53;77127.16;;;-145.37;64.33
13486;BME280;6815;59.336;17.998;2022-10-17T14:04:20;77133.19;;;-145.37;64.29
13486;BME280;6815;59.336;17.998;2022-10-17T14:06:45;77129.16;;;-145.37;64.33
13486;BME280;6815;59.336;17.998;2022-10-17T14:09:24;77133.19;;;-145.37;64.80
13486;BME280;6815;59.336;17.998;2022-10-17T14:12:16;77165.34;;;-145.37;64.82
13486;BME280;6815;59.336;17.998;2022-10-17T14:14:49;77153.28;;;-145.37;64.36
13486;BME280;6815;59.336;17.998;2022-10-17T14:17:26;77159.31;;;-145.37;64.83
13486;BME280;6815;59.336;17.998;2022-10-17T14:19:56;77177.41;;;-145.37;65.21
13486;BME280;6815;59.336;17.998;2022-10-17T14:22:26;77167.38;;;-145.37;65.74
13486;BME280;6815;59.336;17.998;2022-10-17T14:24:52;77177.41;;;-145.37;65.57
13486;BME280;6815;59.336;17.998;2022-10-17T14:29:54;77153.28;;;-145.37;65.64
13486;BME280;6815;59.336;17.998;2022-10-17T14:32:20;77161.34;;;-145.37;65.90
13486;BME280;6815;59.336;17.998;2022-10-17T14:34:51;77159.31;;;-145.37;65.73